sensor_id;sensor_type;location;lat;lon;timestamp;P1;durP1;ratioP1;P2;durP2;ratioP2
70920;SDS011;58572;48.110;19.838;2023-04-24T00:03:42;6.45;;;3.65;;
70920;SDS011;58572;48.110;19.838;2023-04-24T00:06:09;8.77;;;3.80;;
70920;SDS011;58572;48.110;19.838;2023-04-24T00:08:38;7.20;;;4.10;;
70920;SDS011;58572;48.110;19.838;2023-04-24T00:11:05;5.78;;;3.47;;
70920;SDS011;58572;48.110;19.838;2023-04-24T00:13:32;6.68;;;2.80;;
70920;SDS011;58572;48.110;19.838;2023-04-24T00:15:59;5.20;;;3.75;;
70920;SDS011;58572;48.110;19.838;2023-04-24T00:18:27;5.55;;;3.58;;
70920;SDS011;58572;48.110;19.838;2023-04-24T00:20:54;4.90;;;3.60;;
70920;SDS011;58572;48.110;19.838;2023-04-24T00:23:21;5.35;;;2.78;;
70920;SDS011;58572;48.110;19.838;2023-04-24T00:25:50;5.50;;;3.60;;
70920;SDS011;58572;48.110;19.838;2023-04-24T00:28:17;5.95;;;3.80;;
70920;SDS011;58572;48.110;19.838;2023-04-24T00:30:44;5.55;;;3.47;;
70920;SDS011;58572;48.110;19.838;2023-04-24T00:33:11;6.18;;;3.75;;
70920;SDS011;58572;48.110;19.838;2023-04-24T00:35:40;6.28;;;3.75;;
70920;SDS011;58572;48.110;19.838;2023-04-24T00:38:07;5.00;;;3.80;;
70920;SDS011;58572;48.110;19.838;2023-04-24T00:40:34;4.75;;;3.63;;
70920;SDS011;58572;48.110;19.838;2023-04-24T00:43:03;7.75;;;3.85;;
70920;SDS011;58572;48.110;19.838;2023-04-24T00:45:30;5.60;;;3.60;;
70920;SDS011;58572;48.110;19.838;2023-04-24T00:47:57;5.30;;;3.88;;
70920;SDS011;58572;48.110;19.838;2023-04-24T00:50:26;6.65;;;3.85;;
70920;SDS011;58572;48.110;19.838;2023-04-24T00:52:53;8.68;;;3.70;;
70920;SDS011;58572;48.110;19.838;2023-04-24T00:55:21;5.40;;;3.45;;
70920;SDS011;58572;48.110;19.838;2023-04-24T00:57:48;4.78;;;3.40;;
70920;SDS011;58572;48.110;19.838;2023-04-24T01:00:17;8.32;;;4.13;;
70920;SDS011;58572;48.110;19.838;2023-04-24T01:02:45;6.03;;;4.05;;
70920;SDS011;58572;48.110;19.838;2023-04-24T01:05:14;6.30;;;3.97;;
70920;SDS011;58572;48.110;19.838;2023-04-24T01:07:43;8.55;;;3.88;;
70920;SDS011;58572;48.110;19.838;2023-04-24T01:10:14;6.10;;;3.95;;
70920;SDS011;58572;48.110;19.838;2023-04-24T01:12:42;5.38;;;3.97;;
70920;SDS011;58572;48.110;19.838;2023-04-24T01:15:10;7.95;;;4.15;;
70920;SDS011;58572;48.110;19.838;2023-04-24T01:17:39;7.13;;;4.07;;
70920;SDS011;58572;48.110;19.838;2023-04-24T01:20:06;6.43;;;4.50;;
70920;SDS011;58572;48.110;19.838;2023-04-24T01:22:36;6.35;;;3.88;;
70920;SDS011;58572;48.110;19.838;2023-04-24T01:25:03;5.88;;;4.25;;
70920;SDS011;58572;48.110;19.838;2023-04-24T01:27:31;9.00;;;4.20;;
70920;SDS011;58572;48.110;19.838;2023-04-24T01:29:58;8.63;;;4.32;;
70920;SDS011;58572;48.110;19.838;2023-04-24T01:34:53;5.43;;;3.58;;
70920;SDS011;58572;48.110;19.838;2023-04-24T01:37:21;6.88;;;4.28;;
70920;SDS011;58572;48.110;19.838;2023-04-24T01:39:50;7.88;;;3.80;;
70920;SDS011;58572;48.110;19.838;2023-04-24T01:42:17;5.18;;;3.85;;
70920;SDS011;58572;48.110;19.838;2023-04-24T01:44:45;8.00;;;3.97;;
70920;SDS011;58572;48.110;19.838;2023-04-24T01:47:12;7.32;;;4.30;;
70920;SDS011;58572;48.110;19.838;2023-04-24T01:49:40;9.23;;;4.30;;
70920;SDS011;58572;48.110;19.838;2023-04-24T01:52:07;7.00;;;4.32;;
70920;SDS011;58572;48.110;19.838;2023-04-24T01:54:34;6.60;;;4.10;;
70920;SDS011;58572;48.110;19.838;2023-04-24T01:57:03;5.80;;;3.75;;
70920;SDS011;58572;48.110;19.838;2023-04-24T01:59:30;6.10;;;3.58;;
70920;SDS011;58572;48.110;19.838;2023-04-24T02:01:59;6.53;;;4.03;;
70920;SDS011;58572;48.110;19.838;2023-04-24T02:04:27;7.55;;;4.07;;
70920;SDS011;58572;48.110;19.838;2023-04-24T02:06:55;6.13;;;3.90;;
70920;SDS011;58572;48.110;19.838;2023-04-24T02:09:22;7.15;;;4.00;;
70920;SDS011;58572;48.110;19.838;2023-04-24T02:14:18;6.63;;;4.18;;
70920;SDS011;58572;48.110;19.838;2023-04-24T02:16:45;8.10;;;4.30;;
70920;SDS011;58572;48.110;19.838;2023-04-24T02:19:12;6.65;;;3.80;;
70920;SDS011;58572;48.110;19.838;2023-04-24T02:21:39;6.13;;;3.88;;
70920;SDS011;58572;48.110;19.838;2023-04-24T02:24:07;5.95;;;4.18;;
70920;SDS011;58572;48.110;19.838;2023-04-24T02:26:34;7.13;;;4.05;;
70920;SDS011;58572;48.110;19.838;2023-04-24T02:29:01;5.70;;;4.10;;
70920;SDS011;58572;48.110;19.838;2023-04-24T02:31:30;5.53;;;3.60;;
70920;SDS011;58572;48.110;19.838;2023-04-24T02:33:57;7.93;;;4.40;;
70920;SDS011;58572;48.110;19.838;2023-04-24T02:36:24;6.32;;;3.88;;
70920;SDS011;58572;48.110;19.838;2023-04-24T02:38:51;5.75;;;4.03;;
70920;SDS011;58572;48.110;19.838;2023-04-24T02:41:19;7.57;;;4.10;;
70920;SDS011;58572;48.110;19.838;2023-04-24T02:43:46;10.38;;;4.38;;
70920;SDS011;58572;48.110;19.838;2023-04-24T02:46:13;5.60;;;4.13;;
70920;SDS011;58572;48.110;19.838;2023-04-24T02:48:42;5.38;;;4.25;;
70920;SDS011;58572;48.110;19.838;2023-04-24T02:51:09;6.50;;;3.60;;
70920;SDS011;58572;48.110;19.838;2023-04-24T02:53:36;6.38;;;4.22;;
70920;SDS011;58572;48.110;19.838;2023-04-24T02:56:03;7.50;;;4.22;;
70920;SDS011;58572;48.110;19.838;2023-04-24T02:58:31;6.75;;;3.90;;
70920;SDS011;58572;48.110;19.838;2023-04-24T03:00:58;6.32;;;3.90;;
70920;SDS011;58572;48.110;19.838;2023-04-24T03:03:25;7.13;;;4.57;;
70920;SDS011;58572;48.110;19.838;2023-04-24T03:05:54;6.38;;;4.38;;
70920;SDS011;58572;48.110;19.838;2023-04-24T03:08:22;7.18;;;4.25;;
70920;SDS011;58572;48.110;19.838;2023-04-24T03:10:49;8.02;;;4.30;;
70920;SDS011;58572;48.110;19.838;2023-04-24T03:13:17;6.75;;;4.18;;
70920;SDS011;58572;48.110;19.838;2023-04-24T03:15:44;6.93;;;4.07;;
70920;SDS011;58572;48.110;19.838;2023-04-24T03:18:12;7.20;;;4.45;;
70920;SDS011;58572;48.110;19.838;2023-04-24T03:20:39;6.53;;;4.20;;
70920;SDS011;58572;48.110;19.838;2023-04-24T03:23:08;7.45;;;4.60;;
70920;SDS011;58572;48.110;19.838;2023-04-24T03:25:35;7.80;;;5.07;;
70920;SDS011;58572;48.110;19.838;2023-04-24T03:28:02;7.68;;;4.40;;
70920;SDS011;58572;48.110;19.838;2023-04-24T03:30:29;9.80;;;4.75;;
70920;SDS011;58572;48.110;19.838;2023-04-24T03:32:56;7.32;;;5.15;;
70920;SDS011;58572;48.110;19.838;2023-04-24T03:35:23;10.57;;;5.22;;
70920;SDS011;58572;48.110;19.838;2023-04-24T03:37:51;6.85;;;4.50;;
70920;SDS011;58572;48.110;19.838;2023-04-24T03:40:19;7.88;;;5.07;;
70920;SDS011;58572;48.110;19.838;2023-04-24T03:42:47;7.80;;;4.47;;
70920;SDS011;58572;48.110;19.838;2023-04-24T03:45:15;9.15;;;5.20;;
70920;SDS011;58572;48.110;19.838;2023-04-24T03:47:42;9.82;;;5.05;;
70920;SDS011;58572;48.110;19.838;2023-04-24T03:50:10;7.20;;;4.53;;
70920;SDS011;58572;48.110;19.838;2023-04-24T03:52:37;11.88;;;5.05;;
70920;SDS011;58572;48.110;19.838;2023-04-24T03:55:04;6.57;;;3.53;;
70920;SDS011;58572;48.110;19.838;2023-04-24T03:57:34;8.38;;;4.88;;
70920;SDS011;58572;48.110;19.838;2023-04-24T04:00:02;6.60;;;4.63;;
70920;SDS011;58572;48.110;19.838;2023-04-24T04:02:31;7.75;;;4.65;;
70920;SDS011;58572;48.110;19.838;2023-04-24T04:04:58;7.47;;;5.30;;
70920;SDS011;58572;48.110;19.838;2023-04-24T04:07:25;7.25;;;4.22;;
70920;SDS011;58572;48.110;19.838;2023-04-24T04:09:52;6.25;;;4.35;;
70920;SDS011;58572;48.110;19.838;2023-04-24T04:12:20;6.72;;;4.45;;
70920;SDS011;58572;48.110;19.838;2023-04-24T04:14:48;5.40;;;4.03;;
70920;SDS011;58572;48.110;19.838;2023-04-24T04:17:15;5.93;;;4.25;;
70920;SDS011;58572;48.110;19.838;2023-04-24T04:19:43;8.98;;;4.40;;
70920;SDS011;58572;48.110;19.838;2023-04-24T04:22:10;6.30;;;4.63;;
70920;SDS011;58572;48.110;19.838;2023-04-24T04:24:37;9.45;;;5.15;;
70920;SDS011;58572;48.110;19.838;2023-04-24T04:27:06;8.50;;;4.55;;
70920;SDS011;58572;48.110;19.838;2023-04-24T04:29:33;5.18;;;4.07;;
70920;SDS011;58572;48.110;19.838;2023-04-24T04:32:02;6.28;;;4.10;;
70920;SDS011;58572;48.110;19.838;2023-04-24T04:34:29;9.10;;;4.93;;
70920;SDS011;58572;48.110;19.838;2023-04-24T04:36:57;7.78;;;3.80;;
70920;SDS011;58572;48.110;19.838;2023-04-24T04:39:26;8.10;;;4.55;;
70920;SDS011;58572;48.110;19.838;2023-04-24T04:41:55;7.43;;;4.85;;
70920;SDS011;58572;48.110;19.838;2023-04-24T04:44:22;7.13;;;4.28;;
70920;SDS011;58572;48.110;19.838;2023-04-24T04:46:49;6.30;;;4.63;;
70920;SDS011;58572;48.110;19.838;2023-04-24T04:49:19;7.03;;;3.80;;
70920;SDS011;58572;48.110;19.838;2023-04-24T04:51:48;6.80;;;4.28;;
70920;SDS011;58572;48.110;19.838;2023-04-24T04:54:16;8.38;;;4.20;;
70920;SDS011;58572;48.110;19.838;2023-04-24T04:56:44;7.03;;;4.18;;
70920;SDS011;58572;48.110;19.838;2023-04-24T04:59:11;8.73;;;4.85;;
70920;SDS011;58572;48.110;19.838;2023-04-24T05:01:38;8.25;;;4.85;;
70920;SDS011;58572;48.110;19.838;2023-04-24T05:04:05;6.80;;;3.97;;
70920;SDS011;58572;48.110;19.838;2023-04-24T05:06:34;7.55;;;4.78;;
70920;SDS011;58572;48.110;19.838;2023-04-24T05:09:01;7.93;;;4.25;;
70920;SDS011;58572;48.110;19.838;2023-04-24T05:11:29;8.55;;;4.43;;
70920;SDS011;58572;48.110;19.838;2023-04-24T05:13:56;8.00;;;5.63;;
70920;SDS011;58572;48.110;19.838;2023-04-24T05:16:24;6.18;;;4.32;;
70920;SDS011;58572;48.110;19.838;2023-04-24T05:18:51;6.57;;;4.22;;
70920;SDS011;58572;48.110;19.838;2023-04-24T05:21:18;8.15;;;4.60;;
70920;SDS011;58572;48.110;19.838;2023-04-24T05:26:14;7.68;;;4.28;;
70920;SDS011;58572;48.110;19.838;2023-04-24T05:28:42;8.68;;;4.68;;
70920;SDS011;58572;48.110;19.838;2023-04-24T05:31:10;8.63;;;4.20;;
70920;SDS011;58572;48.110;19.838;2023-04-24T05:33:37;7.72;;;4.10;;
70920;SDS011;58572;48.110;19.838;2023-04-24T05:36:05;7.03;;;4.68;;
70920;SDS011;58572;48.110;19.838;2023-04-24T05:38:33;6.13;;;4.75;;
70920;SDS011;58572;48.110;19.838;2023-04-24T05:41:02;9.65;;;4.70;;
70920;SDS011;58572;48.110;19.838;2023-04-24T05:43:29;8.13;;;5.70;;
70920;SDS011;58572;48.110;19.838;2023-04-24T05:45:56;5.95;;;4.82;;
70920;SDS011;58572;48.110;19.838;2023-04-24T05:48:23;8.48;;;5.75;;
70920;SDS011;58572;48.110;19.838;2023-04-24T05:50:51;9.40;;;5.72;;
70920;SDS011;58572;48.110;19.838;2023-04-24T05:53:18;7.85;;;5.40;;
70920;SDS011;58572;48.110;19.838;2023-04-24T05:55:45;10.02;;;6.05;;
70920;SDS011;58572;48.110;19.838;2023-04-24T05:58:15;7.20;;;5.50;;
70920;SDS011;58572;48.110;19.838;2023-04-24T06:00:42;7.20;;;5.40;;
70920;SDS011;58572;48.110;19.838;2023-04-24T06:03:11;7.90;;;5.60;;
70920;SDS011;58572;48.110;19.838;2023-04-24T06:05:38;9.82;;;6.32;;
70920;SDS011;58572;48.110;19.838;2023-04-24T06:08:06;7.40;;;5.57;;
70920;SDS011;58572;48.110;19.838;2023-04-24T06:10:33;7.53;;;5.20;;
70920;SDS011;58572;48.110;19.838;2023-04-24T06:13:00;7.28;;;5.15;;
70920;SDS011;58572;48.110;19.838;2023-04-24T06:15:30;8.65;;;6.07;;
70920;SDS011;58572;48.110;19.838;2023-04-24T06:17:57;7.88;;;4.88;;
70920;SDS011;58572;48.110;19.838;2023-04-24T06:20:24;7.80;;;5.40;;
70920;SDS011;58572;48.110;19.838;2023-04-24T06:25:19;7.25;;;5.38;;
70920;SDS011;58572;48.110;19.838;2023-04-24T06:30:13;7.38;;;5.05;;
70920;SDS011;58572;48.110;19.838;2023-04-24T06:35:09;8.63;;;5.38;;
70920;SDS011;58572;48.110;19.838;2023-04-24T06:37:37;7.55;;;4.65;;
70920;SDS011;58572;48.110;19.838;2023-04-24T06:40:06;9.15;;;5.22;;
70920;SDS011;58572;48.110;19.838;2023-04-24T06:42:34;11.00;;;5.82;;
70920;SDS011;58572;48.110;19.838;2023-04-24T06:45:02;10.35;;;6.30;;
70920;SDS011;58572;48.110;19.838;2023-04-24T06:47:30;8.10;;;6.15;;
70920;SDS011;58572;48.110;19.838;2023-04-24T06:49:59;10.98;;;6.63;;
70920;SDS011;58572;48.110;19.838;2023-04-24T06:52:26;17.30;;;5.97;;
70920;SDS011;58572;48.110;19.838;2023-04-24T06:54:59;10.48;;;6.53;;
70920;SDS011;58572;48.110;19.838;2023-04-24T06:59:53;9.68;;;5.63;;
70920;SDS011;58572;48.110;19.838;2023-04-24T07:02:21;8.82;;;5.85;;
70920;SDS011;58572;48.110;19.838;2023-04-24T07:04:48;7.75;;;5.97;;
70920;SDS011;58572;48.110;19.838;2023-04-24T07:07:16;9.55;;;6.43;;
70920;SDS011;58572;48.110;19.838;2023-04-24T07:09:43;8.18;;;6.18;;
70920;SDS011;58572;48.110;19.838;2023-04-24T07:12:11;7.95;;;6.22;;
70920;SDS011;58572;48.110;19.838;2023-04-24T07:14:38;9.65;;;6.10;;
70920;SDS011;58572;48.110;19.838;2023-04-24T07:17:06;9.20;;;6.40;;
70920;SDS011;58572;48.110;19.838;2023-04-24T07:19:33;9.60;;;6.10;;
70920;SDS011;58572;48.110;19.838;2023-04-24T07:22:01;8.93;;;6.18;;
70920;SDS011;58572;48.110;19.838;2023-04-24T07:24:30;8.45;;;5.55;;
70920;SDS011;58572;48.110;19.838;2023-04-24T07:26:58;11.88;;;5.80;;
70920;SDS011;58572;48.110;19.838;2023-04-24T07:29:26;8.38;;;6.00;;
70920;SDS011;58572;48.110;19.838;2023-04-24T07:31:53;9.50;;;5.70;;
70920;SDS011;58572;48.110;19.838;2023-04-24T07:34:21;8.82;;;6.10;;
70920;SDS011;58572;48.110;19.838;2023-04-24T07:36:48;8.52;;;5.78;;
70920;SDS011;58572;48.110;19.838;2023-04-24T07:41:44;10.27;;;5.75;;
70920;SDS011;58572;48.110;19.838;2023-04-24T07:44:12;9.57;;;6.40;;
70920;SDS011;58572;48.110;19.838;2023-04-24T07:46:39;9.57;;;5.78;;
70920;SDS011;58572;48.110;19.838;2023-04-24T07:49:06;10.00;;;7.00;;
70920;SDS011;58572;48.110;19.838;2023-04-24T07:51:34;8.32;;;5.65;;
70920;SDS011;58572;48.110;19.838;2023-04-24T07:54:03;10.57;;;6.80;;
70920;SDS011;58572;48.110;19.838;2023-04-24T07:56:31;11.05;;;6.68;;
70920;SDS011;58572;48.110;19.838;2023-04-24T07:59:00;10.45;;;7.43;;
70920;SDS011;58572;48.110;19.838;2023-04-24T08:01:27;10.07;;;5.95;;
70920;SDS011;58572;48.110;19.838;2023-04-24T08:03:54;9.93;;;6.35;;
70920;SDS011;58572;48.110;19.838;2023-04-24T08:06:21;9.68;;;6.60;;
70920;SDS011;58572;48.110;19.838;2023-04-24T08:08:49;9.32;;;6.45;;
70920;SDS011;58572;48.110;19.838;2023-04-24T08:11:16;11.70;;;6.78;;
70920;SDS011;58572;48.110;19.838;2023-04-24T08:13:43;8.40;;;6.43;;
70920;SDS011;58572;48.110;19.838;2023-04-24T08:16:12;8.15;;;5.85;;
70920;SDS011;58572;48.110;19.838;2023-04-24T08:18:39;11.57;;;6.22;;
70920;SDS011;58572;48.110;19.838;2023-04-24T08:21:08;8.40;;;5.85;;
70920;SDS011;58572;48.110;19.838;2023-04-24T08:23:38;8.18;;;6.32;;
70920;SDS011;58572;48.110;19.838;2023-04-24T08:26:06;10.07;;;6.43;;
70920;SDS011;58572;48.110;19.838;2023-04-24T08:28:33;9.98;;;5.60;;
70920;SDS011;58572;48.110;19.838;2023-04-24T08:31:00;10.25;;;6.00;;
70920;SDS011;58572;48.110;19.838;2023-04-24T08:33:29;7.65;;;5.40;;
70920;SDS011;58572;48.110;19.838;2023-04-24T08:35:59;8.85;;;6.00;;
70920;SDS011;58572;48.110;19.838;2023-04-24T08:38:26;7.35;;;5.72;;
70920;SDS011;58572;48.110;19.838;2023-04-24T08:40:53;8.23;;;6.65;;
70920;SDS011;58572;48.110;19.838;2023-04-24T08:43:22;9.43;;;6.18;;
70920;SDS011;58572;48.110;19.838;2023-04-24T08:45:50;8.18;;;5.70;;
70920;SDS011;58572;48.110;19.838;2023-04-24T08:48:17;8.80;;;5.50;;
70920;SDS011;58572;48.110;19.838;2023-04-24T08:50:46;7.43;;;5.28;;
70920;SDS011;58572;48.110;19.838;2023-04-24T08:53:15;7.97;;;5.75;;
70920;SDS011;58572;48.110;19.838;2023-04-24T08:55:42;7.28;;;5.68;;
70920;SDS011;58572;48.110;19.838;2023-04-24T08:58:13;7.25;;;5.45;;
70920;SDS011;58572;48.110;19.838;2023-04-24T09:00:41;7.82;;;6.10;;
70920;SDS011;58572;48.110;19.838;2023-04-24T09:03:12;8.20;;;5.78;;
70920;SDS011;58572;48.110;19.838;2023-04-24T09:05:41;7.95;;;6.25;;
70920;SDS011;58572;48.110;19.838;2023-04-24T09:08:12;8.68;;;6.30;;
70920;SDS011;58572;48.110;19.838;2023-04-24T09:10:40;8.15;;;4.85;;
70920;SDS011;58572;48.110;19.838;2023-04-24T09:13:08;7.20;;;5.80;;
70920;SDS011;58572;48.110;19.838;2023-04-24T09:15:35;13.63;;;7.47;;
70920;SDS011;58572;48.110;19.838;2023-04-24T09:18:04;9.30;;;5.72;;
70920;SDS011;58572;48.110;19.838;2023-04-24T09:20:31;8.15;;;5.15;;
70920;SDS011;58572;48.110;19.838;2023-04-24T09:23:00;7.68;;;6.00;;
70920;SDS011;58572;48.110;19.838;2023-04-24T09:25:32;9.68;;;6.55;;
70920;SDS011;58572;48.110;19.838;2023-04-24T09:28:01;8.45;;;6.15;;
70920;SDS011;58572;48.110;19.838;2023-04-24T09:30:29;9.40;;;6.32;;
70920;SDS011;58572;48.110;19.838;2023-04-24T09:35:42;9.30;;;6.22;;
70920;SDS011;58572;48.110;19.838;2023-04-24T09:38:15;8.57;;;5.97;;
70920;SDS011;58572;48.110;19.838;2023-04-24T09:40:44;9.13;;;4.80;;
70920;SDS011;58572;48.110;19.838;2023-04-24T09:43:11;10.15;;;6.25;;
70920;SDS011;58572;48.110;19.838;2023-04-24T09:48:07;10.15;;;6.13;;
70920;SDS011;58572;48.110;19.838;2023-04-24T09:50:35;7.57;;;5.75;;
70920;SDS011;58572;48.110;19.838;2023-04-24T09:53:03;9.18;;;5.90;;
70920;SDS011;58572;48.110;19.838;2023-04-24T09:55:33;8.45;;;6.20;;
70920;SDS011;58572;48.110;19.838;2023-04-24T09:58:07;9.63;;;6.70;;
70920;SDS011;58572;48.110;19.838;2023-04-24T10:00:35;8.15;;;5.50;;
70920;SDS011;58572;48.110;19.838;2023-04-24T10:03:03;8.85;;;6.15;;
70920;SDS011;58572;48.110;19.838;2023-04-24T10:05:33;9.23;;;6.18;;
70920;SDS011;58572;48.110;19.838;2023-04-24T10:08:02;11.18;;;6.15;;
70920;SDS011;58572;48.110;19.838;2023-04-24T10:10:31;7.22;;;5.50;;
70920;SDS011;58572;48.110;19.838;2023-04-24T10:12:59;12.05;;;6.18;;
70920;SDS011;58572;48.110;19.838;2023-04-24T10:17:55;10.30;;;6.75;;
70920;SDS011;58572;48.110;19.838;2023-04-24T10:20:26;8.95;;;5.72;;
70920;SDS011;58572;48.110;19.838;2023-04-24T10:22:56;10.02;;;6.20;;
70920;SDS011;58572;48.110;19.838;2023-04-24T10:25:26;9.40;;;6.80;;
70920;SDS011;58572;48.110;19.838;2023-04-24T10:27:54;9.50;;;6.75;;
70920;SDS011;58572;48.110;19.838;2023-04-24T10:30:25;7.85;;;5.88;;
70920;SDS011;58572;48.110;19.838;2023-04-24T10:32:54;9.20;;;6.45;;
70920;SDS011;58572;48.110;19.838;2023-04-24T10:35:22;9.07;;;5.88;;
70920;SDS011;58572;48.110;19.838;2023-04-24T10:37:54;7.60;;;5.95;;
70920;SDS011;58572;48.110;19.838;2023-04-24T10:40:25;8.98;;;6.28;;
70920;SDS011;58572;48.110;19.838;2023-04-24T10:42:54;9.40;;;5.00;;
70920;SDS011;58572;48.110;19.838;2023-04-24T10:45:23;9.65;;;5.50;;
70920;SDS011;58572;48.110;19.838;2023-04-24T10:47:51;8.50;;;5.88;;
70920;SDS011;58572;48.110;19.838;2023-04-24T10:50:20;9.05;;;5.50;;
70920;SDS011;58572;48.110;19.838;2023-04-24T10:52:48;10.07;;;5.32;;
70920;SDS011;58572;48.110;19.838;2023-04-24T10:55:31;8.38;;;6.38;;
70920;SDS011;58572;48.110;19.838;2023-04-24T10:58:07;8.95;;;5.53;;
70920;SDS011;58572;48.110;19.838;2023-04-24T11:00:36;8.57;;;4.82;;
70920;SDS011;58572;48.110;19.838;2023-04-24T11:03:05;5.88;;;3.42;;
70920;SDS011;58572;48.110;19.838;2023-04-24T11:08:26;9.07;;;5.57;;
70920;SDS011;58572;48.110;19.838;2023-04-24T11:10:59;9.27;;;6.65;;
70920;SDS011;58572;48.110;19.838;2023-04-24T11:16:34;8.23;;;5.57;;
70920;SDS011;58572;48.110;19.838;2023-04-24T11:19:10;8.30;;;5.80;;
70920;SDS011;58572;48.110;19.838;2023-04-24T11:21:47;6.53;;;5.15;;
70920;SDS011;58572;48.110;19.838;2023-04-24T11:24:26;7.55;;;5.88;;
70920;SDS011;58572;48.110;19.838;2023-04-24T11:26:56;7.80;;;5.43;;
70920;SDS011;58572;48.110;19.838;2023-04-24T11:29:38;7.63;;;5.15;;
70920;SDS011;58572;48.110;19.838;2023-04-24T11:32:16;6.53;;;5.18;;
70920;SDS011;58572;48.110;19.838;2023-04-24T11:34:48;7.13;;;4.85;;
70920;SDS011;58572;48.110;19.838;2023-04-24T11:37:18;7.15;;;5.13;;
70920;SDS011;58572;48.110;19.838;2023-04-24T11:39:45;7.80;;;5.43;;
70920;SDS011;58572;48.110;19.838;2023-04-24T11:42:13;7.00;;;5.10;;
70920;SDS011;58572;48.110;19.838;2023-04-24T11:44:41;7.78;;;5.75;;
70920;SDS011;58572;48.110;19.838;2023-04-24T11:47:09;6.50;;;4.80;;
70920;SDS011;58572;48.110;19.838;2023-04-24T11:52:04;6.60;;;4.65;;
70920;SDS011;58572;48.110;19.838;2023-04-24T11:54:33;6.53;;;5.05;;
70920;SDS011;58572;48.110;19.838;2023-04-24T11:57:03;8.52;;;5.95;;
70920;SDS011;58572;48.110;19.838;2023-04-24T11:59:35;7.05;;;5.55;;
70920;SDS011;58572;48.110;19.838;2023-04-24T12:02:03;7.80;;;5.18;;
70920;SDS011;58572;48.110;19.838;2023-04-24T12:04:38;9.80;;;6.18;;
70920;SDS011;58572;48.110;19.838;2023-04-24T12:07:06;10.27;;;5.80;;
70920;SDS011;58572;48.110;19.838;2023-04-24T12:09:42;8.30;;;5.68;;
70920;SDS011;58572;48.110;19.838;2023-04-24T12:12:10;7.60;;;5.80;;
70920;SDS011;58572;48.110;19.838;2023-04-24T12:14:42;8.45;;;6.00;;
70920;SDS011;58572;48.110;19.838;2023-04-24T12:17:14;7.53;;;5.70;;
70920;SDS011;58572;48.110;19.838;2023-04-24T12:19:45;7.30;;;5.78;;
70920;SDS011;58572;48.110;19.838;2023-04-24T12:22:16;8.07;;;6.20;;
70920;SDS011;58572;48.110;19.838;2023-04-24T12:27:25;7.18;;;5.28;;
70920;SDS011;58572;48.110;19.838;2023-04-24T12:29:53;8.25;;;6.47;;
70920;SDS011;58572;48.110;19.838;2023-04-24T12:32:22;9.20;;;6.07;;
70920;SDS011;58572;48.110;19.838;2023-04-24T12:34:50;9.52;;;7.05;;
70920;SDS011;58572;48.110;19.838;2023-04-24T12:37:20;9.52;;;7.45;;
70920;SDS011;58572;48.110;19.838;2023-04-24T12:42:42;14.45;;;8.07;;
70920;SDS011;58572;48.110;19.838;2023-04-24T12:45:10;8.48;;;7.00;;
70920;SDS011;58572;48.110;19.838;2023-04-24T12:47:38;9.07;;;6.82;;
70920;SDS011;58572;48.110;19.838;2023-04-24T12:50:06;9.73;;;6.90;;
70920;SDS011;58572;48.110;19.838;2023-04-24T12:52:36;8.40;;;6.68;;
70920;SDS011;58572;48.110;19.838;2023-04-24T12:57:34;10.90;;;6.50;;
70920;SDS011;58572;48.110;19.838;2023-04-24T13:00:03;10.30;;;6.72;;
70920;SDS011;58572;48.110;19.838;2023-04-24T13:02:32;10.45;;;7.78;;
70920;SDS011;58572;48.110;19.838;2023-04-24T13:05:00;10.27;;;7.75;;
70920;SDS011;58572;48.110;19.838;2023-04-24T13:07:27;10.18;;;7.55;;
70920;SDS011;58572;48.110;19.838;2023-04-24T13:09:55;11.13;;;8.75;;
70920;SDS011;58572;48.110;19.838;2023-04-24T13:12:23;11.18;;;8.70;;
70920;SDS011;58572;48.110;19.838;2023-04-24T13:14:52;12.95;;;8.70;;
70920;SDS011;58572;48.110;19.838;2023-04-24T13:17:19;13.82;;;10.43;;
70920;SDS011;58572;48.110;19.838;2023-04-24T13:19:48;11.85;;;9.90;;
70920;SDS011;58572;48.110;19.838;2023-04-24T13:22:16;15.82;;;12.40;;
70920;SDS011;58572;48.110;19.838;2023-04-24T13:24:45;13.50;;;10.63;;
70920;SDS011;58572;48.110;19.838;2023-04-24T13:27:13;13.63;;;11.77;;
70920;SDS011;58572;48.110;19.838;2023-04-24T13:29:41;13.82;;;10.48;;
70920;SDS011;58572;48.110;19.838;2023-04-24T13:32:09;13.27;;;9.30;;
70920;SDS011;58572;48.110;19.838;2023-04-24T13:34:36;14.63;;;12.00;;
70920;SDS011;58572;48.110;19.838;2023-04-24T13:37:04;16.60;;;12.60;;
70920;SDS011;58572;48.110;19.838;2023-04-24T13:41:58;13.15;;;10.25;;
70920;SDS011;58572;48.110;19.838;2023-04-24T13:46:53;15.80;;;10.38;;
70920;SDS011;58572;48.110;19.838;2023-04-24T13:49:23;15.43;;;13.27;;
70920;SDS011;58572;48.110;19.838;2023-04-24T13:51:51;15.82;;;10.70;;
70920;SDS011;58572;48.110;19.838;2023-04-24T13:54:19;16.13;;;10.95;;
70920;SDS011;58572;48.110;19.838;2023-04-24T13:56:48;15.65;;;12.80;;
70920;SDS011;58572;48.110;19.838;2023-04-24T13:59:15;18.08;;;15.07;;
70920;SDS011;58572;48.110;19.838;2023-04-24T14:01:43;18.48;;;12.98;;
70920;SDS011;58572;48.110;19.838;2023-04-24T14:04:10;17.30;;;15.00;;
70920;SDS011;58572;48.110;19.838;2023-04-24T14:06:39;18.20;;;14.60;;
70920;SDS011;58572;48.110;19.838;2023-04-24T14:09:06;18.20;;;13.43;;
70920;SDS011;58572;48.110;19.838;2023-04-24T14:11:33;17.70;;;12.77;;
70920;SDS011;58572;48.110;19.838;2023-04-24T14:14:01;16.23;;;13.23;;
70920;SDS011;58572;48.110;19.838;2023-04-24T14:16:29;16.58;;;13.15;;
70920;SDS011;58572;48.110;19.838;2023-04-24T14:18:56;18.50;;;14.75;;
70920;SDS011;58572;48.110;19.838;2023-04-24T14:21:24;17.00;;;13.85;;
70920;SDS011;58572;48.110;19.838;2023-04-24T14:23:52;17.15;;;13.25;;
70920;SDS011;58572;48.110;19.838;2023-04-24T14:26:19;16.25;;;13.07;;
70920;SDS011;58572;48.110;19.838;2023-04-24T14:28:47;16.77;;;12.05;;
70920;SDS011;58572;48.110;19.838;2023-04-24T14:31:14;14.45;;;12.13;;
70920;SDS011;58572;48.110;19.838;2023-04-24T14:33:41;15.32;;;12.15;;
70920;SDS011;58572;48.110;19.838;2023-04-24T14:36:08;17.23;;;12.65;;
70920;SDS011;58572;48.110;19.838;2023-04-24T14:38:35;18.92;;;13.95;;
70920;SDS011;58572;48.110;19.838;2023-04-24T14:41:04;18.00;;;15.00;;
70920;SDS011;58572;48.110;19.838;2023-04-24T14:43:34;18.42;;;12.50;;
70920;SDS011;58572;48.110;19.838;2023-04-24T14:46:01;16.17;;;12.88;;
70920;SDS011;58572;48.110;19.838;2023-04-24T14:48:29;15.85;;;12.35;;
70920;SDS011;58572;48.110;19.838;2023-04-24T14:50:56;15.63;;;13.13;;
70920;SDS011;58572;48.110;19.838;2023-04-24T14:53:23;13.27;;;11.23;;
70920;SDS011;58572;48.110;19.838;2023-04-24T14:55:51;16.10;;;12.65;;
70920;SDS011;58572;48.110;19.838;2023-04-24T14:58:21;14.32;;;12.10;;
70920;SDS011;58572;48.110;19.838;2023-04-24T15:00:48;15.80;;;12.95;;
70920;SDS011;58572;48.110;19.838;2023-04-24T15:03:19;17.00;;;14.05;;
70920;SDS011;58572;48.110;19.838;2023-04-24T15:05:47;16.38;;;12.60;;
70920;SDS011;58572;48.110;19.838;2023-04-24T15:08:15;14.45;;;11.95;;
70920;SDS011;58572;48.110;19.838;2023-04-24T15:10:42;53.45;;;24.17;;
70920;SDS011;58572;48.110;19.838;2023-04-24T15:13:10;36.80;;;20.98;;
70920;SDS011;58572;48.110;19.838;2023-04-24T15:15:39;33.20;;;23.05;;
70920;SDS011;58572;48.110;19.838;2023-04-24T15:18:07;25.65;;;16.38;;
70920;SDS011;58572;48.110;19.838;2023-04-24T15:20:36;20.65;;;16.73;;
70920;SDS011;58572;48.110;19.838;2023-04-24T15:23:07;17.17;;;13.00;;
70920;SDS011;58572;48.110;19.838;2023-04-24T15:25:35;18.73;;;15.05;;